createdAt,value
2019-04-30T00:01:39.208Z,42.03
2019-04-30T00:04:16.543Z,40.23
2019-04-30T00:06:45.407Z,41.60
2019-04-30T00:09:18.969Z,41.10
2019-04-30T00:11:46.078Z,42.70
2019-04-30T00:14:15.334Z,41.47
2019-04-30T00:16:45.051Z,40.10
2019-04-30T00:19:15.768Z,40.47
2019-04-30T00:21:42.622Z,40.70
2019-04-30T00:24:10.466Z,40.17
2019-04-30T00:26:39.874Z,40.33
2019-04-30T00:29:08.473Z,41.90
2019-04-30T00:31:36.210Z,42.23
2019-04-30T00:34:05.017Z,43.13
2019-04-30T00:36:34.126Z,43.73
2019-04-30T00:39:07.150Z,43.63
2019-04-30T00:41:35.240Z,43.57
2019-04-30T00:44:05.291Z,44.17
2019-04-30T00:46:36.255Z,42.53
2019-04-30T00:49:11.217Z,42.33
2019-04-30T00:51:35.333Z,40.80
2019-04-30T00:54:03.164Z,42.10
2019-04-30T00:56:30.976Z,40.03
2019-04-30T00:59:02.435Z,40.77
2019-04-30T01:01:50.946Z,40.00
2019-04-30T01:04:38.276Z,37.83
2019-04-30T01:07:08.761Z,39.13
2019-04-30T01:09:39.606Z,40.10
2019-04-30T01:12:06.396Z,37.63
2019-04-30T01:14:34.313Z,38.60
2019-04-30T01:17:03.746Z,37.67
2019-04-30T01:19:35.081Z,38.73
2019-04-30T01:22:03.841Z,38.23
2019-04-30T01:24:32.701Z,36.30
2019-04-30T01:27:06.921Z,35.67
2019-04-30T01:29:38.055Z,35.53
2019-04-30T01:32:02.705Z,35.87
2019-04-30T01:34:30.531Z,35.40
2019-04-30T01:36:58.972Z,34.43
2019-04-30T01:39:30.039Z,33.53
2019-04-30T01:41:58.587Z,34.43
2019-04-30T01:44:26.471Z,32.63
2019-04-30T01:46:54.867Z,31.40
2019-04-30T01:49:25.763Z,32.60
2019-04-30T01:51:52.868Z,31.40
2019-04-30T01:54:24.308Z,31.70
2019-04-30T01:57:06.188Z,32.50
2019-04-30T01:59:56.124Z,31.80
2019-04-30T02:02:25.788Z,31.70
2019-04-30T02:04:53.552Z,30.07
2019-04-30T02:07:21.268Z,30.97
2019-04-30T02:09:49.959Z,30.17
2019-04-30T02:12:19.728Z,30.23
2019-04-30T02:14:49.464Z,28.43
2019-04-30T02:17:19.150Z,27.50
2019-04-30T02:19:54.726Z,26.90
2019-04-30T02:22:18.827Z,25.27
2019-04-30T02:24:48.607Z,25.00
2019-04-30T02:27:16.536Z,25.03
2019-04-30T02:29:44.318Z,24.37
2019-04-30T02:32:12.660Z,23.37
2019-04-30T02:34:46.405Z,23.10
2019-04-30T02:37:21.154Z,21.57
2019-04-30T02:39:50.287Z,21.30
2019-04-30T02:42:20.100Z,22.20
2019-04-30T02:44:51.026Z,22.17
2019-04-30T02:47:21.461Z,21.07
2019-04-30T02:49:53.344Z,20.90
2019-04-30T02:52:25.003Z,20.33
2019-04-30T02:54:55.091Z,18.83
2019-04-30T02:57:23.559Z,19.87
2019-04-30T03:00:10.194Z,18.73
2019-04-30T03:02:39.474Z,18.33
2019-04-30T03:05:12.826Z,17.87
2019-04-30T03:07:40.504Z,17.27
2019-04-30T03:10:10.085Z,17.03
2019-04-30T03:12:40.433Z,16.47
2019-04-30T03:15:09.952Z,16.47
2019-04-30T03:17:50.888Z,16.40
2019-04-30T03:20:44.153Z,15.53
2019-04-30T03:23:11.864Z,15.33
2019-04-30T03:25:40.527Z,15.23
2019-04-30T03:28:09.774Z,14.73
2019-04-30T03:30:41.662Z,14.63
2019-04-30T03:33:12.209Z,15.03
2019-04-30T03:35:46.620Z,15.00
2019-04-30T03:38:09.460Z,14.70
2019-04-30T03:40:40.204Z,14.57
2019-04-30T03:43:06.753Z,14.70
2019-04-30T03:45:34.644Z,14.47
2019-04-30T03:48:03.255Z,13.97
2019-04-30T03:50:48.220Z,14.00
2019-04-30T03:53:00.774Z,13.90
2019-04-30T03:55:29.882Z,13.97
2019-04-30T03:58:00.171Z,14.20
2019-04-30T04:00:46.744Z,13.37
2019-04-30T04:03:14.709Z,13.07
2019-04-30T04:06:09.409Z,13.80
2019-04-30T04:08:45.014Z,13.07
2019-04-30T04:11:23.413Z,12.97
2019-04-30T04:13:51.133Z,13.67
2019-04-30T04:16:19.459Z,12.47
2019-04-30T04:18:49.795Z,12.10
2019-04-30T04:21:20.165Z,12.13
2019-04-30T04:23:49.164Z,12.30
2019-04-30T04:26:16.405Z,12.40
2019-04-30T04:28:44.299Z,12.07
2019-04-30T04:31:12.622Z,12.63
2019-04-30T04:33:40.389Z,12.60
2019-04-30T04:36:09.198Z,12.00
2019-04-30T04:38:40.061Z,11.63
2019-04-30T04:41:10.102Z,12.77
2019-04-30T04:43:36.572Z,12.80
2019-04-30T04:46:04.282Z,12.07
2019-04-30T04:48:32.065Z,12.10
2019-04-30T04:51:00.258Z,12.63
2019-04-30T04:53:30.423Z,11.80
2019-04-30T04:55:59.924Z,12.90
2019-04-30T04:58:29.664Z,12.77
2019-04-30T05:00:59.236Z,12.70
2019-04-30T05:03:31.901Z,12.50
2019-04-30T05:06:02.373Z,13.00
2019-04-30T05:08:29.356Z,11.97
2019-04-30T05:10:57.310Z,13.00
2019-04-30T05:13:25.255Z,12.60
2019-04-30T05:15:53.055Z,12.50
2019-04-30T05:18:22.740Z,12.27
2019-04-30T05:20:50.449Z,11.07
2019-04-30T05:23:19.516Z,12.23
2019-04-30T05:25:49.079Z,12.50
2019-04-30T05:28:18.878Z,12.03
2019-04-30T05:30:46.867Z,11.60
2019-04-30T05:33:14.684Z,11.80
2019-04-30T05:35:42.431Z,12.27
2019-04-30T05:38:10.416Z,12.73
2019-04-30T05:40:39.818Z,11.43
2019-04-30T05:43:08.733Z,11.43
2019-04-30T05:45:39.025Z,11.20
2019-04-30T05:48:08.739Z,10.77
2019-04-30T05:50:36.646Z,10.83
2019-04-30T05:53:04.610Z,11.07
2019-04-30T05:55:32.408Z,11.27
2019-04-30T05:58:01.529Z,11.30
2019-04-30T06:00:30.605Z,11.07
2019-04-30T06:02:59.492Z,11.33
2019-04-30T06:05:28.629Z,11.07
2019-04-30T06:07:56.676Z,11.27
2019-04-30T06:10:42.422Z,11.00
2019-04-30T06:13:26.570Z,11.20
2019-04-30T06:16:11.830Z,10.67
2019-04-30T06:18:42.149Z,10.87
2019-04-30T06:21:09.431Z,10.13
2019-04-30T06:23:39.211Z,10.27
2019-04-30T06:26:09.943Z,10.93
2019-04-30T06:28:36.933Z,10.73
2019-04-30T06:31:04.754Z,10.43
2019-04-30T06:33:48.738Z,11.13
2019-04-30T06:36:19.048Z,10.43
2019-04-30T06:38:48.936Z,10.23
2019-04-30T06:41:16.775Z,10.40
2019-04-30T06:43:44.852Z,10.13
2019-04-30T06:46:12.768Z,9.70
2019-04-30T06:48:41.878Z,9.93
2019-04-30T06:51:09.753Z,9.67
2019-04-30T06:53:39.155Z,9.87
2019-04-30T06:56:08.918Z,9.00
2019-04-30T06:58:36.794Z,8.70
2019-04-30T07:01:04.518Z,9.70
2019-04-30T07:03:32.290Z,10.07
2019-04-30T07:06:00.053Z,9.57
2019-04-30T07:08:55.667Z,9.50
2019-04-30T07:11:24.922Z,9.43
2019-04-30T07:13:52.807Z,10.63
2019-04-30T07:16:20.610Z,10.40
2019-04-30T07:18:48.982Z,11.00
2019-04-30T07:21:16.881Z,10.43
2019-04-30T07:23:44.620Z,10.47
2019-04-30T07:26:13.734Z,10.37
2019-04-30T07:31:14.709Z,10.50
2019-04-30T07:33:42.539Z,10.80
2019-04-30T07:36:10.310Z,10.43
2019-04-30T07:38:45.727Z,10.30
2019-04-30T07:41:09.567Z,10.50
2019-04-30T07:43:39.256Z,10.60
2019-04-30T07:46:09.382Z,10.10
2019-04-30T07:48:39.928Z,11.80
2019-04-30T07:51:10.300Z,10.43
2019-04-30T07:53:36.979Z,10.50
2019-04-30T07:56:23.604Z,11.20
2019-04-30T07:58:34.758Z,10.30
2019-04-30T08:01:02.515Z,10.37
2019-04-30T08:03:55.635Z,10.40
2019-04-30T08:06:23.977Z,10.00
2019-04-30T08:08:57.054Z,9.37
2019-04-30T08:09:38.450Z,10.43
2019-04-30T08:11:25.666Z,10.33
2019-04-30T08:13:52.111Z,10.17
2019-04-30T08:16:20.207Z,10.93
2019-04-30T08:18:49.226Z,10.57
2019-04-30T08:21:19.021Z,9.90
2019-04-30T08:23:48.819Z,10.27
2019-04-30T08:26:18.704Z,9.60
2019-04-30T08:28:48.599Z,10.07
2019-04-30T08:31:16.224Z,9.63
2019-04-30T08:33:44.118Z,9.63
2019-04-30T08:36:11.942Z,9.77
2019-04-30T08:38:39.719Z,10.80
2019-04-30T08:41:09.298Z,9.37
2019-04-30T08:43:39.506Z,9.43
2019-04-30T08:46:09.295Z,10.10
2019-04-30T08:48:49.867Z,9.87
2019-04-30T08:51:09.347Z,9.83
2019-04-30T08:53:38.494Z,9.60
2019-04-30T08:56:06.492Z,10.50
2019-04-30T08:58:34.316Z,9.70
2019-04-30T09:01:02.107Z,9.10
2019-04-30T09:03:29.816Z,8.90
2019-04-30T09:06:09.343Z,9.10
2019-04-30T09:08:40.093Z,9.60
2019-04-30T09:11:21.821Z,9.73
2019-04-30T09:13:38.945Z,8.83
2019-04-30T09:16:09.243Z,9.37
2019-04-30T09:18:39.269Z,9.37
2019-04-30T09:21:08.873Z,9.23
2019-04-30T09:23:45.914Z,9.40
2019-04-30T09:26:08.544Z,9.73
2019-04-30T09:28:37.033Z,10.13
2019-04-30T09:31:06.171Z,9.37
2019-04-30T09:33:33.936Z,9.67
2019-04-30T09:36:01.823Z,9.63
2019-04-30T09:38:29.677Z,8.80
2019-04-30T09:40:59.434Z,9.00
2019-04-30T09:43:28.607Z,9.53
2019-04-30T09:45:56.768Z,9.13
2019-04-30T09:48:24.654Z,9.87
2019-04-30T09:50:52.833Z,9.90
2019-04-30T09:53:21.126Z,10.30
2019-04-30T09:55:50.282Z,9.87
2019-04-30T09:58:20.943Z,9.97
2019-04-30T10:00:50.201Z,10.33
2019-04-30T10:03:20.123Z,10.00
2019-04-30T10:05:49.161Z,9.90
2019-04-30T10:08:18.875Z,10.73
2019-04-30T10:10:58.791Z,10.90
2019-04-30T10:13:26.777Z,10.00
2019-04-30T10:16:15.064Z,10.67
2019-04-30T10:18:42.827Z,10.20
2019-04-30T10:21:10.747Z,11.03
2019-04-30T10:23:39.210Z,9.93
2019-04-30T10:26:07.052Z,10.73
2019-04-30T10:28:38.624Z,11.70
2019-04-30T10:31:06.936Z,12.20
2019-04-30T10:33:34.915Z,11.47
2019-04-30T10:36:02.872Z,12.00
2019-04-30T10:38:30.789Z,27.13
2019-04-30T10:40:59.324Z,17.27
2019-04-30T10:43:29.053Z,12.37
2019-04-30T10:45:58.563Z,12.77
2019-04-30T10:48:26.731Z,13.80
2019-04-30T10:50:56.344Z,15.00
2019-04-30T10:53:24.095Z,13.80
2019-04-30T10:55:51.798Z,13.80
2019-04-30T10:58:19.661Z,13.77
2019-04-30T11:00:48.002Z,13.40
2019-04-30T11:03:20.756Z,13.50
2019-04-30T11:05:48.692Z,13.07
2019-04-30T11:08:16.565Z,12.50
2019-04-30T11:10:44.477Z,12.87
2019-04-30T11:13:12.336Z,13.10
2019-04-30T11:15:40.030Z,13.83
2019-04-30T11:18:07.897Z,15.80
2019-04-30T11:20:35.987Z,15.40
2019-04-30T11:23:13.853Z,14.63
2019-04-30T11:25:34.745Z,53.87
2019-04-30T11:28:03.745Z,41.33
2019-04-30T11:30:32.116Z,53.67
2019-04-30T11:33:00.435Z,17.40
2019-04-30T11:35:29.668Z,14.27
2019-04-30T11:37:57.738Z,14.53
2019-04-30T11:40:34.531Z,14.83
2019-04-30T11:42:59.232Z,15.20
2019-04-30T11:46:08.742Z,15.57
2019-04-30T11:48:36.579Z,16.57
2019-04-30T11:51:09.437Z,14.77
2019-04-30T11:53:39.000Z,15.23
2019-04-30T11:56:06.972Z,16.30
2019-04-30T11:58:34.737Z,15.30
2019-04-30T12:01:03.950Z,16.33
2019-04-30T12:03:31.672Z,15.33
2019-04-30T12:05:59.489Z,16.43
2019-04-30T12:08:31.342Z,15.33
2019-04-30T12:11:06.387Z,16.27
2019-04-30T12:13:34.207Z,15.90
2019-04-30T12:16:02.152Z,15.33
2019-04-30T12:18:29.978Z,14.43
2019-04-30T12:20:57.939Z,15.67
2019-04-30T12:23:26.797Z,14.30
2019-04-30T12:25:54.535Z,15.20
2019-04-30T12:28:22.240Z,14.40
2019-04-30T12:30:50.102Z,15.57
2019-04-30T12:33:19.151Z,17.50
2019-04-30T12:35:49.231Z,14.83
2019-04-30T12:38:18.986Z,14.77
2019-04-30T12:40:46.624Z,14.23
2019-04-30T12:43:14.364Z,13.93
2019-04-30T12:45:42.319Z,12.87
2019-04-30T12:48:20.343Z,12.43
2019-04-30T12:51:09.008Z,11.93
2019-04-30T12:53:56.156Z,12.03
2019-04-30T12:56:41.807Z,11.83
2019-04-30T12:59:09.661Z,12.27
2019-04-30T13:01:39.766Z,12.10
2019-04-30T13:04:07.101Z,11.00
2019-04-30T13:06:35.673Z,10.73
2019-04-30T13:09:07.287Z,11.07
2019-04-30T13:11:37.304Z,10.70
2019-04-30T13:14:06.650Z,10.40
2019-04-30T13:16:35.271Z,11.13
2019-04-30T13:19:03.066Z,10.73
2019-04-30T13:21:31.014Z,10.10
2019-04-30T13:23:58.882Z,10.63
2019-04-30T13:26:28.491Z,11.13
2019-04-30T13:29:03.835Z,11.17
2019-04-30T13:31:31.671Z,11.20
2019-04-30T13:34:24.831Z,10.53
2019-04-30T13:36:52.611Z,9.63
2019-04-30T13:39:27.106Z,10.83
2019-04-30T13:42:00.215Z,10.87
2019-04-30T13:44:31.219Z,10.63
2019-04-30T13:46:59.011Z,10.83
2019-04-30T13:49:30.058Z,9.73
2019-04-30T13:51:56.563Z,11.10
2019-04-30T13:54:25.144Z,9.93
2019-04-30T13:56:52.889Z,9.60
2019-04-30T13:59:20.733Z,9.30
2019-04-30T14:01:48.966Z,9.03
2019-04-30T14:04:42.000Z,9.07
2019-04-30T14:07:28.832Z,9.60
2019-04-30T14:09:56.728Z,8.70
2019-04-30T14:12:24.574Z,9.33
2019-04-30T14:14:52.370Z,9.87
2019-04-30T14:17:20.426Z,10.43
2019-04-30T14:19:48.225Z,8.70
2019-04-30T14:22:16.116Z,8.73
2019-04-30T14:24:44.110Z,7.90
2019-04-30T14:27:24.890Z,9.27
2019-04-30T14:29:52.679Z,9.00
2019-04-30T14:32:20.452Z,8.67
2019-04-30T14:34:50.386Z,8.77
2019-04-30T14:37:18.069Z,9.13
2019-04-30T14:39:46.486Z,9.07
2019-04-30T14:42:15.338Z,8.33
2019-04-30T14:44:44.246Z,7.70
2019-04-30T14:47:30.089Z,8.33
2019-04-30T14:50:16.196Z,7.83
2019-04-30T14:53:03.408Z,8.07
2019-04-30T14:56:08.876Z,7.57
2019-04-30T14:59:04.648Z,7.40
2019-04-30T15:01:41.392Z,7.93
2019-04-30T15:04:09.265Z,8.43
2019-04-30T15:06:37.138Z,8.67
2019-04-30T15:09:07.161Z,12.63
2019-04-30T15:11:35.173Z,9.30
2019-04-30T15:14:03.439Z,8.07
2019-04-30T15:16:31.865Z,7.60
2019-04-30T15:18:59.735Z,7.43
2019-04-30T15:21:28.527Z,7.60
2019-04-30T15:24:06.804Z,7.03
2019-04-30T15:26:34.512Z,7.83
2019-04-30T15:29:10.155Z,8.07
2019-04-30T15:31:34.631Z,7.70
2019-04-30T15:34:13.025Z,7.87
2019-04-30T15:36:41.019Z,7.33
2019-04-30T15:39:39.384Z,7.10
2019-04-30T15:42:08.909Z,7.67
2019-04-30T15:44:42.691Z,7.83
2019-04-30T15:47:08.955Z,7.23
2019-04-30T15:49:36.931Z,7.73
2019-04-30T15:52:04.888Z,7.50
2019-04-30T15:54:32.971Z,8.20
2019-04-30T15:57:00.874Z,7.30
2019-04-30T15:59:39.562Z,7.10
2019-04-30T16:02:11.985Z,9.50
2019-04-30T16:05:01.972Z,7.90
2019-04-30T16:07:29.775Z,7.43
2019-04-30T16:10:05.432Z,6.77
2019-04-30T16:12:58.929Z,7.03
2019-04-30T16:15:27.172Z,7.43
2019-04-30T16:17:56.679Z,7.20
2019-04-30T16:20:24.448Z,7.97
2019-04-30T16:22:52.290Z,7.70
2019-04-30T16:25:20.005Z,7.60
2019-04-30T16:27:47.851Z,8.07
2019-04-30T16:30:15.948Z,8.53
2019-04-30T16:32:43.685Z,8.80
2019-04-30T16:35:11.470Z,7.63
2019-04-30T16:37:39.221Z,7.77
2019-04-30T16:40:08.309Z,7.33
2019-04-30T16:42:38.978Z,7.70
2019-04-30T16:45:09.160Z,7.03
2019-04-30T16:47:36.984Z,6.80
2019-04-30T16:50:05.200Z,7.00
2019-04-30T16:52:32.958Z,6.47
2019-04-30T16:55:00.865Z,7.20
2019-04-30T16:57:30.363Z,6.67
2019-04-30T16:59:59.367Z,7.00
2019-04-30T17:02:29.543Z,8.10
2019-04-30T17:05:20.330Z,8.40
2019-04-30T17:07:56.166Z,29.03
2019-04-30T17:10:43.333Z,12.93
2019-04-30T17:13:25.260Z,9.43
2019-04-30T17:15:55.992Z,21.87
2019-04-30T17:18:23.751Z,26.27
2019-04-30T17:20:51.447Z,12.67
2019-04-30T17:23:19.462Z,9.10
2019-04-30T17:25:47.547Z,9.57
2019-04-30T17:28:18.666Z,78.97
2019-04-30T17:30:46.368Z,27.13
2019-04-30T17:33:14.100Z,13.20
2019-04-30T17:35:41.790Z,11.33
2019-04-30T17:38:09.631Z,13.00
2019-04-30T17:40:38.984Z,22.10
2019-04-30T17:43:06.968Z,29.63
2019-04-30T17:45:34.666Z,18.83
2019-04-30T17:48:02.629Z,58.97
2019-04-30T17:50:30.320Z,43.03
2019-04-30T17:53:00.516Z,22.23
2019-04-30T17:55:29.153Z,10.80
2019-04-30T17:57:58.551Z,8.57
2019-04-30T18:00:29.373Z,29.53
2019-04-30T18:02:57.843Z,15.87
2019-04-30T18:05:26.417Z,9.67
2019-04-30T18:07:56.064Z,8.00
2019-04-30T18:10:24.255Z,7.73
2019-04-30T18:12:52.791Z,8.90
2019-04-30T18:15:23.200Z,12.30
2019-04-30T18:17:58.067Z,13.73
2019-04-30T18:20:39.198Z,12.63
2019-04-30T18:23:25.070Z,14.40
2019-04-30T18:26:06.966Z,21.63
2019-04-30T18:28:34.862Z,16.70
2019-04-30T18:31:02.660Z,10.07
2019-04-30T18:33:30.508Z,9.40
2019-04-30T18:35:59.680Z,9.83
2019-04-30T18:38:29.266Z,11.60
2019-04-30T18:40:57.172Z,9.20
2019-04-30T18:43:24.923Z,8.60
2019-04-30T18:45:52.730Z,9.57
2019-04-30T18:48:20.586Z,8.40
2019-04-30T18:50:48.579Z,9.80
2019-04-30T18:53:21.203Z,10.70
2019-04-30T18:55:50.751Z,13.80
2019-04-30T18:58:20.026Z,11.80
2019-04-30T19:00:49.422Z,9.07
2019-04-30T19:03:21.164Z,8.40
2019-04-30T19:05:51.505Z,8.80
2019-04-30T19:08:39.465Z,9.07
2019-04-30T19:11:28.944Z,8.53
2019-04-30T19:14:05.777Z,8.70
2019-04-30T19:16:50.996Z,8.30
2019-04-30T19:19:25.567Z,8.30
2019-04-30T19:21:53.255Z,8.43
2019-04-30T19:24:21.061Z,8.60
2019-04-30T19:26:48.955Z,8.83
2019-04-30T19:29:16.815Z,8.67
2019-04-30T19:31:44.496Z,8.90
2019-04-30T19:34:12.354Z,8.00
2019-04-30T19:36:40.662Z,7.43
2019-04-30T19:39:12.870Z,6.70
2019-04-30T19:41:40.617Z,7.43
2019-04-30T19:44:09.027Z,7.00
2019-04-30T19:46:36.985Z,7.27
2019-04-30T19:49:04.815Z,7.77
2019-04-30T19:51:33.052Z,7.20
2019-04-30T19:54:01.443Z,7.03
2019-04-30T19:56:30.413Z,7.47
2019-04-30T19:59:02.846Z,6.77
2019-04-30T20:01:28.810Z,7.50
2019-04-30T20:03:58.677Z,7.33
2019-04-30T20:06:28.685Z,7.23
2019-04-30T20:08:56.583Z,7.57
2019-04-30T20:11:24.411Z,7.47
2019-04-30T20:13:52.500Z,6.63
2019-04-30T20:16:21.134Z,7.33
2019-04-30T20:18:49.117Z,7.77
2019-04-30T20:21:27.943Z,6.33
2019-04-30T20:23:48.884Z,7.40
2019-04-30T20:26:16.824Z,7.07
2019-04-30T20:28:44.640Z,6.77
2019-04-30T20:31:12.748Z,7.43
2019-04-30T20:33:40.450Z,6.50
2019-04-30T20:36:09.257Z,7.10
2019-04-30T20:38:45.966Z,7.33
2019-04-30T20:41:22.031Z,7.67
2019-04-30T20:43:49.896Z,6.87
2019-04-30T20:46:29.748Z,6.83
2019-04-30T20:48:49.166Z,6.73
2019-04-30T20:51:17.072Z,6.43
2019-04-30T20:53:45.746Z,6.60
2019-04-30T20:56:13.501Z,5.93
2019-04-30T20:58:54.575Z,6.13
2019-04-30T21:01:12.089Z,5.60
2019-04-30T21:03:40.236Z,5.00
2019-04-30T21:06:08.916Z,5.67
2019-04-30T21:08:36.755Z,5.60
2019-04-30T21:11:04.488Z,5.80
2019-04-30T21:13:32.177Z,6.20
2019-04-30T21:16:00.964Z,5.83
2019-04-30T21:18:32.020Z,6.00
2019-04-30T21:20:59.622Z,5.53
2019-04-30T21:23:29.248Z,6.70
2019-04-30T21:25:58.975Z,9.00
2019-04-30T21:28:26.931Z,7.97
2019-04-30T21:30:54.735Z,7.97
2019-04-30T21:33:32.259Z,8.10
2019-04-30T21:36:08.833Z,6.87
2019-04-30T21:38:36.665Z,6.27
2019-04-30T21:41:04.471Z,7.73
2019-04-30T21:43:32.152Z,9.00
2019-04-30T21:45:59.933Z,8.20
2019-04-30T21:48:28.789Z,6.80
2019-04-30T21:50:56.688Z,6.30
2019-04-30T21:53:24.474Z,5.27
2019-04-30T21:55:52.212Z,4.57
2019-04-30T21:58:20.426Z,4.40
2019-04-30T22:01:24.605Z,4.70
2019-04-30T22:03:52.537Z,4.23
2019-04-30T22:06:20.539Z,4.77
2019-04-30T22:08:48.630Z,4.33
2019-04-30T22:11:16.425Z,4.40
2019-04-30T22:13:44.464Z,4.47
2019-04-30T22:16:12.171Z,4.00
2019-04-30T22:18:39.915Z,5.53
2019-04-30T22:21:07.814Z,5.37
2019-04-30T22:23:36.319Z,4.83
2019-04-30T22:26:04.376Z,4.73
2019-04-30T22:28:32.217Z,4.20
2019-04-30T22:31:00.055Z,4.97
2019-04-30T22:33:29.245Z,5.00
2019-04-30T22:36:02.856Z,5.87
2019-04-30T22:38:34.790Z,5.53
2019-04-30T22:41:02.652Z,6.07
2019-04-30T22:43:30.561Z,5.87
2019-04-30T22:46:03.484Z,6.80
2019-04-30T22:48:31.227Z,5.53
2019-04-30T22:50:59.024Z,5.97
2019-04-30T22:53:26.795Z,6.30
2019-04-30T22:55:54.502Z,5.80
2019-04-30T22:58:22.371Z,5.73
2019-04-30T23:00:52.172Z,6.40
2019-04-30T23:03:26.378Z,5.17
2019-04-30T23:05:54.084Z,4.73
2019-04-30T23:08:21.856Z,5.07
2019-04-30T23:10:49.988Z,4.70
2019-04-30T23:13:18.262Z,5.10
2019-04-30T23:15:49.514Z,4.93
2019-04-30T23:18:17.585Z,4.70
2019-04-30T23:20:45.306Z,5.30
2019-04-30T23:23:14.667Z,4.73
2019-04-30T23:25:42.540Z,5.27
2019-04-30T23:28:10.284Z,5.00
2019-04-30T23:30:38.796Z,4.53
2019-04-30T23:33:06.593Z,5.80
2019-04-30T23:35:34.442Z,5.60
2019-04-30T23:38:02.354Z,4.87
2019-04-30T23:40:46.090Z,4.90
2019-04-30T23:43:13.863Z,4.47
2019-04-30T23:45:41.732Z,4.50
2019-04-30T23:48:09.638Z,4.60
2019-04-30T23:50:37.374Z,4.43
2019-04-30T23:53:05.088Z,4.60
2019-04-30T23:55:32.970Z,4.57
2019-04-30T23:58:00.780Z,5.93
